createdAt,value
2023-05-16T00:01:09.351Z,15.41
2023-05-16T00:03:39.415Z,15.41
2023-05-16T00:06:06.461Z,15.38
2023-05-16T00:08:33.295Z,15.33
2023-05-16T00:11:00.325Z,15.30
2023-05-16T00:13:29.664Z,15.27
2023-05-16T00:15:56.904Z,15.20
2023-05-16T00:18:23.756Z,15.16
2023-05-16T00:20:51.933Z,15.14
2023-05-16T00:23:18.986Z,15.14
2023-05-16T00:25:47.165Z,15.10
2023-05-16T00:28:14.770Z,15.07
2023-05-16T00:30:41.712Z,15.11
2023-05-16T00:33:08.827Z,15.13
2023-05-16T00:35:35.878Z,15.15
2023-05-16T00:38:03.512Z,15.17
2023-05-16T00:40:30.504Z,15.12
2023-05-16T00:42:57.325Z,15.09
2023-05-16T00:45:24.323Z,15.09
2023-05-16T00:47:52.010Z,15.10
2023-05-16T00:50:19.573Z,15.11
2023-05-16T00:52:46.517Z,15.10
2023-05-16T00:55:13.974Z,15.09
2023-05-16T00:57:41.362Z,15.02
2023-05-16T01:00:10.654Z,15.01
2023-05-16T01:02:38.518Z,14.99
2023-05-16T01:05:05.801Z,14.92
2023-05-16T01:07:32.640Z,14.86
2023-05-16T01:09:59.965Z,14.82
2023-05-16T01:12:49.312Z,14.77
2023-05-16T01:15:47.537Z,14.77
2023-05-16T01:18:43.598Z,14.76
2023-05-16T01:21:21.517Z,14.74
2023-05-16T01:24:35.488Z,14.73
2023-05-16T01:27:04.995Z,14.74
2023-05-16T01:29:32.405Z,14.76
2023-05-16T01:31:59.464Z,14.76
2023-05-16T01:34:26.923Z,14.79
2023-05-16T01:37:25.628Z,14.76
2023-05-16T01:40:07.621Z,14.74
2023-05-16T01:42:41.155Z,14.76
2023-05-16T01:45:23.000Z,14.69
2023-05-16T01:48:02.004Z,14.66
2023-05-16T01:50:34.618Z,14.58
2023-05-16T01:53:11.473Z,14.57
2023-05-16T01:55:46.652Z,14.54
2023-05-16T01:58:16.047Z,14.49
2023-05-16T02:00:43.517Z,14.43
2023-05-16T02:03:11.274Z,14.36
2023-05-16T02:05:38.369Z,14.32
2023-05-16T02:08:05.786Z,14.27
2023-05-16T02:10:32.945Z,14.20
2023-05-16T02:12:59.865Z,14.17
2023-05-16T02:15:27.090Z,14.13
2023-05-16T02:17:54.693Z,14.04
2023-05-16T02:20:21.625Z,14.03
2023-05-16T02:22:49.937Z,13.99
2023-05-16T02:25:17.014Z,13.99
2023-05-16T02:27:44.044Z,13.95
2023-05-16T02:30:12.272Z,13.90
2023-05-16T02:32:40.637Z,13.89
2023-05-16T02:35:08.295Z,13.87
2023-05-16T02:37:35.400Z,13.79
2023-05-16T02:40:05.740Z,13.69
2023-05-16T02:42:33.032Z,13.58
2023-05-16T02:45:00.252Z,13.55
2023-05-16T02:47:27.301Z,13.51
2023-05-16T02:49:54.747Z,13.52
2023-05-16T02:52:21.676Z,13.52
2023-05-16T02:54:59.874Z,13.51
2023-05-16T02:57:35.490Z,13.54
2023-05-16T03:00:02.349Z,13.56
2023-05-16T03:02:29.254Z,13.49
2023-05-16T03:04:56.248Z,13.48
2023-05-16T03:07:23.154Z,13.45
2023-05-16T03:09:50.038Z,13.46
2023-05-16T03:12:17.739Z,13.42
2023-05-16T03:14:45.264Z,13.41
2023-05-16T03:17:12.172Z,13.39
2023-05-16T03:19:39.465Z,13.32
2023-05-16T03:22:06.325Z,13.31
2023-05-16T03:24:33.431Z,13.27
2023-05-16T03:27:00.586Z,13.22
2023-05-16T03:29:27.433Z,13.18
2023-05-16T03:31:57.557Z,13.16
2023-05-16T03:34:26.750Z,13.11
2023-05-16T03:36:53.629Z,13.07
2023-05-16T03:39:20.700Z,13.06
2023-05-16T03:41:47.689Z,13.05
2023-05-16T03:44:14.857Z,13.06
2023-05-16T03:46:41.886Z,13.08
2023-05-16T03:49:11.577Z,13.03
2023-05-16T03:51:38.706Z,13.01
2023-05-16T03:54:05.996Z,13.02
2023-05-16T03:56:32.969Z,13.00
2023-05-16T03:58:59.818Z,13.01
2023-05-16T04:01:27.593Z,13.00
2023-05-16T04:03:54.504Z,13.01
2023-05-16T04:06:22.011Z,13.05
2023-05-16T04:08:48.897Z,13.06
2023-05-16T04:11:15.804Z,13.04
2023-05-16T04:13:42.808Z,13.03
2023-05-16T04:16:09.624Z,13.07
2023-05-16T04:18:36.690Z,13.12
2023-05-16T04:21:03.861Z,13.17
2023-05-16T04:23:30.929Z,13.24
2023-05-16T04:25:58.910Z,13.28
2023-05-16T04:28:25.886Z,13.33
2023-05-16T04:30:53.644Z,13.33
2023-05-16T04:33:20.494Z,13.42
2023-05-16T04:35:48.481Z,13.53
2023-05-16T04:38:15.689Z,13.67
2023-05-16T04:40:43.136Z,13.80
2023-05-16T04:43:10.299Z,13.91
2023-05-16T04:45:37.929Z,14.02
2023-05-16T04:48:05.159Z,14.13
2023-05-16T04:50:32.089Z,14.20
2023-05-16T04:52:58.940Z,14.29
2023-05-16T04:55:26.048Z,14.33
2023-05-16T04:57:53.143Z,14.34
2023-05-16T05:00:20.585Z,14.33
2023-05-16T05:02:47.518Z,14.39
2023-05-16T05:05:14.490Z,14.44
2023-05-16T05:07:41.555Z,14.48
2023-05-16T05:10:09.306Z,14.51
2023-05-16T05:12:36.301Z,14.46
2023-05-16T05:15:04.300Z,14.43
2023-05-16T05:17:31.237Z,14.41
2023-05-16T05:19:58.817Z,14.42
2023-05-16T05:22:27.130Z,14.38
2023-05-16T05:24:54.000Z,14.39
2023-05-16T05:27:20.933Z,14.41
2023-05-16T05:29:47.812Z,14.52
2023-05-16T05:32:14.737Z,14.54
2023-05-16T05:34:41.642Z,14.57
2023-05-16T05:37:08.670Z,14.58
2023-05-16T05:39:35.818Z,14.61
2023-05-16T05:42:03.945Z,14.66
2023-05-16T05:44:31.268Z,14.70
2023-05-16T05:46:58.712Z,14.66
2023-05-16T05:49:27.241Z,14.60
2023-05-16T05:51:54.439Z,14.52
2023-05-16T05:54:21.534Z,14.41
2023-05-16T05:56:48.645Z,14.32
2023-05-16T05:59:16.017Z,14.33
2023-05-16T06:01:44.482Z,14.24
2023-05-16T06:04:11.659Z,14.11
2023-05-16T06:06:40.078Z,14.12
2023-05-16T06:09:07.210Z,14.20
2023-05-16T06:11:34.117Z,14.25
2023-05-16T06:14:01.064Z,14.29
2023-05-16T06:16:28.111Z,14.23
2023-05-16T06:18:55.119Z,14.19
2023-05-16T06:21:22.279Z,14.16
2023-05-16T06:23:49.420Z,14.17
2023-05-16T06:26:16.307Z,14.20
2023-05-16T06:28:43.382Z,14.13
2023-05-16T06:31:10.369Z,14.14
2023-05-16T06:33:37.348Z,14.16
2023-05-16T06:36:04.723Z,14.20
2023-05-16T06:38:31.617Z,14.22
2023-05-16T06:40:58.462Z,14.27
2023-05-16T06:43:25.713Z,14.28
2023-05-16T06:45:52.676Z,14.33
2023-05-16T06:48:19.808Z,14.38
2023-05-16T06:50:53.611Z,14.46
2023-05-16T06:53:20.717Z,14.50
2023-05-16T06:55:48.141Z,14.45
2023-05-16T06:58:15.167Z,14.50
2023-05-16T07:00:42.134Z,14.46
2023-05-16T07:03:09.085Z,14.49
2023-05-16T07:05:36.366Z,14.62
2023-05-16T07:08:04.573Z,14.74
2023-05-16T07:10:32.586Z,14.73
2023-05-16T07:13:01.494Z,14.74
2023-05-16T07:15:31.225Z,14.67
2023-05-16T07:17:58.285Z,14.69
2023-05-16T07:20:25.505Z,14.60
2023-05-16T07:22:52.543Z,14.59
2023-05-16T07:25:19.473Z,14.52
2023-05-16T07:27:46.452Z,14.47
2023-05-16T07:30:14.510Z,14.44
2023-05-16T07:32:42.457Z,14.28
2023-05-16T07:35:10.230Z,14.29
2023-05-16T07:37:37.109Z,14.27
2023-05-16T07:40:04.573Z,14.30
2023-05-16T07:42:32.079Z,14.32
2023-05-16T07:44:58.980Z,14.21
2023-05-16T07:47:26.093Z,14.16
2023-05-16T07:49:53.023Z,14.14
2023-05-16T07:52:20.249Z,14.03
2023-05-16T07:54:47.967Z,13.97
2023-05-16T07:57:18.087Z,14.00
2023-05-16T07:59:45.274Z,13.96
2023-05-16T08:02:12.418Z,13.90
2023-05-16T08:04:39.497Z,13.87
2023-05-16T08:07:06.407Z,13.90
2023-05-16T08:09:33.325Z,13.93
2023-05-16T08:12:03.644Z,13.90
2023-05-16T08:14:32.842Z,13.94
2023-05-16T08:17:00.536Z,13.89
2023-05-16T08:19:28.091Z,13.92
2023-05-16T08:21:55.353Z,13.80
2023-05-16T08:24:22.256Z,13.80
2023-05-16T08:26:49.194Z,13.76
2023-05-16T08:29:17.274Z,13.66
2023-05-16T08:31:44.408Z,13.61
2023-05-16T08:34:11.415Z,13.66
2023-05-16T08:36:38.975Z,13.68
2023-05-16T08:39:06.085Z,13.64
2023-05-16T08:41:33.202Z,13.66
2023-05-16T08:44:00.115Z,13.62
2023-05-16T08:46:30.239Z,13.66
2023-05-16T08:49:00.465Z,13.56
2023-05-16T08:51:34.503Z,13.62
2023-05-16T08:54:07.826Z,13.69
2023-05-16T08:56:36.758Z,13.75
2023-05-16T08:59:04.978Z,13.82
2023-05-16T09:01:32.510Z,14.01
2023-05-16T09:04:00.978Z,14.21
2023-05-16T09:06:28.285Z,14.29
2023-05-16T09:08:55.557Z,14.39
2023-05-16T09:11:22.573Z,14.60
2023-05-16T09:13:49.808Z,14.82
2023-05-16T09:16:19.472Z,14.75
2023-05-16T09:18:58.047Z,14.56
2023-05-16T09:21:38.058Z,14.49
2023-05-16T09:24:07.352Z,14.30
2023-05-16T09:26:37.233Z,14.15
2023-05-16T09:29:14.153Z,14.08
2023-05-16T09:31:41.268Z,14.02
2023-05-16T09:34:11.291Z,13.96
2023-05-16T09:36:38.534Z,13.88
2023-05-16T09:39:08.863Z,13.86
2023-05-16T09:41:36.451Z,13.80
2023-05-16T09:44:07.473Z,13.90
2023-05-16T09:46:37.110Z,13.88
2023-05-16T09:49:04.085Z,13.84
2023-05-16T09:51:32.146Z,13.84
2023-05-16T09:54:00.511Z,13.89
2023-05-16T09:56:27.593Z,13.86
2023-05-16T09:58:54.552Z,13.90
2023-05-16T10:01:21.544Z,13.95
2023-05-16T10:03:48.671Z,13.86
2023-05-16T10:06:17.153Z,13.89
2023-05-16T10:08:44.395Z,13.92
2023-05-16T10:11:11.997Z,13.91
2023-05-16T10:13:40.022Z,13.93
2023-05-16T10:16:14.278Z,14.00
2023-05-16T10:18:42.422Z,13.95
2023-05-16T10:21:15.072Z,13.91
2023-05-16T10:23:43.759Z,13.96
2023-05-16T10:26:14.045Z,13.91
2023-05-16T10:28:41.468Z,13.96
2023-05-16T10:31:11.683Z,14.04
2023-05-16T10:33:40.050Z,14.08
2023-05-16T10:36:11.001Z,14.12
2023-05-16T10:38:39.174Z,14.08
2023-05-16T10:41:07.738Z,14.03
2023-05-16T10:43:34.683Z,14.05
2023-05-16T10:46:09.742Z,14.10
2023-05-16T10:48:41.480Z,14.07
2023-05-16T10:51:40.991Z,14.11
2023-05-16T10:54:15.594Z,14.14
2023-05-16T10:56:43.417Z,14.14
2023-05-16T10:59:25.515Z,14.01
2023-05-16T11:01:55.031Z,14.08
2023-05-16T11:04:22.180Z,14.09
2023-05-16T11:06:53.897Z,14.05
2023-05-16T11:09:23.405Z,13.98
2023-05-16T11:11:53.667Z,14.01
2023-05-16T11:14:29.043Z,14.01
2023-05-16T11:17:07.687Z,13.99
2023-05-16T11:19:50.025Z,14.11
2023-05-16T11:22:20.741Z,14.17
2023-05-16T11:25:01.915Z,14.15
2023-05-16T11:27:38.726Z,14.13
2023-05-16T11:30:05.479Z,13.92
2023-05-16T11:32:36.257Z,13.82
2023-05-16T11:35:05.774Z,13.82
2023-05-16T11:37:32.722Z,13.79
2023-05-16T11:40:09.314Z,13.83
2023-05-16T11:42:40.245Z,13.63
2023-05-16T11:45:22.835Z,13.58
2023-05-16T11:47:50.702Z,13.64
2023-05-16T11:50:26.141Z,13.67
2023-05-16T11:52:56.140Z,13.79
2023-05-16T11:55:40.323Z,13.94
2023-05-16T11:58:09.706Z,14.06
2023-05-16T12:00:36.632Z,14.07
2023-05-16T12:03:05.874Z,13.97
2023-05-16T12:05:34.594Z,13.96
2023-05-16T12:08:04.485Z,14.06
2023-05-16T12:10:34.154Z,14.16
2023-05-16T12:13:02.098Z,14.28
2023-05-16T12:15:29.567Z,14.30
2023-05-16T12:17:56.965Z,14.43
2023-05-16T12:20:25.994Z,14.68
2023-05-16T12:22:52.981Z,14.84
2023-05-16T12:25:35.614Z,15.04
2023-05-16T12:28:05.014Z,15.16
2023-05-16T12:30:32.921Z,15.26
2023-05-16T12:33:07.938Z,15.28
2023-05-16T12:35:38.401Z,15.21
2023-05-16T12:38:10.989Z,15.15
2023-05-16T12:40:41.318Z,15.15
2023-05-16T12:43:22.929Z,15.19
2023-05-16T12:45:52.889Z,15.13
2023-05-16T12:48:20.306Z,15.08
2023-05-16T12:50:48.678Z,14.88
2023-05-16T12:53:18.225Z,14.89
2023-05-16T12:55:45.681Z,14.96
2023-05-16T12:58:13.838Z,15.02
2023-05-16T13:00:40.903Z,15.13
2023-05-16T13:03:08.144Z,15.20
2023-05-16T13:05:36.209Z,15.30
2023-05-16T13:08:03.983Z,15.41
2023-05-16T13:10:31.152Z,15.59
2023-05-16T13:13:01.072Z,15.58
2023-05-16T13:15:28.594Z,15.72
2023-05-16T13:17:55.933Z,15.76
2023-05-16T13:20:22.856Z,15.99
2023-05-16T13:22:49.797Z,16.14
2023-05-16T13:25:16.989Z,16.33
2023-05-16T13:27:44.023Z,16.44
2023-05-16T13:30:11.558Z,16.48
2023-05-16T13:32:38.599Z,16.38
2023-05-16T13:35:06.148Z,16.47
2023-05-16T13:37:33.454Z,16.43
2023-05-16T13:40:00.413Z,16.39
2023-05-16T13:42:27.493Z,16.45
2023-05-16T13:44:54.466Z,16.63
2023-05-16T13:47:21.435Z,16.72
2023-05-16T13:49:48.597Z,16.64
2023-05-16T13:52:15.571Z,16.58
2023-05-16T13:54:42.446Z,16.50
2023-05-16T13:57:09.430Z,16.45
2023-05-16T14:02:06.198Z,16.36
2023-05-16T14:04:33.165Z,16.36
2023-05-16T14:07:00.059Z,16.42
2023-05-16T14:09:27.014Z,16.33
2023-05-16T14:11:54.041Z,16.31
2023-05-16T14:14:21.218Z,16.37
2023-05-16T14:16:48.245Z,16.54
2023-05-16T14:19:18.858Z,16.64
2023-05-16T14:21:46.654Z,16.69
2023-05-16T14:24:13.528Z,16.67
2023-05-16T14:26:40.848Z,16.67
2023-05-16T14:29:07.707Z,16.63
2023-05-16T14:31:36.471Z,16.59
2023-05-16T14:34:04.120Z,16.64
2023-05-16T14:36:31.841Z,16.74
2023-05-16T14:38:59.053Z,16.84
2023-05-16T14:41:26.659Z,16.91
2023-05-16T14:43:53.621Z,16.95
2023-05-16T14:46:20.811Z,16.96
2023-05-16T14:48:47.710Z,16.90
2023-05-16T14:51:15.180Z,16.80
2023-05-16T14:53:42.530Z,16.73
2023-05-16T14:56:10.367Z,16.67
2023-05-16T14:58:37.220Z,16.66
2023-05-16T15:01:04.214Z,16.69
2023-05-16T15:03:37.763Z,16.75
2023-05-16T15:06:14.104Z,16.86
2023-05-16T15:08:41.514Z,16.90
2023-05-16T15:11:08.499Z,17.06
2023-05-16T15:13:35.533Z,17.07
2023-05-16T15:16:02.485Z,17.04
2023-05-16T15:18:29.399Z,16.96
2023-05-16T15:20:56.532Z,16.83
2023-05-16T15:23:23.425Z,16.78
2023-05-16T15:25:52.205Z,16.62
2023-05-16T15:28:21.647Z,16.53
2023-05-16T15:30:50.714Z,16.42
2023-05-16T15:33:17.609Z,16.42
2023-05-16T15:35:44.536Z,16.44
2023-05-16T15:38:11.413Z,16.38
2023-05-16T15:40:38.263Z,16.35
2023-05-16T15:43:05.175Z,16.33
2023-05-16T15:45:33.047Z,16.28
2023-05-16T15:48:00.039Z,16.24
2023-05-16T15:50:27.133Z,16.23
2023-05-16T15:52:54.072Z,16.31
2023-05-16T15:55:22.017Z,16.33
2023-05-16T15:57:48.900Z,16.35
2023-05-16T16:00:16.551Z,16.36
2023-05-16T16:02:45.303Z,16.31
2023-05-16T16:05:12.315Z,16.39
2023-05-16T16:07:39.190Z,16.43
2023-05-16T16:10:07.011Z,16.41
2023-05-16T16:12:34.217Z,16.50
2023-05-16T16:15:02.299Z,16.53
2023-05-16T16:17:29.315Z,16.50
2023-05-16T16:19:56.226Z,16.51
2023-05-16T16:22:23.358Z,16.47
2023-05-16T16:24:50.269Z,16.42
2023-05-16T16:27:17.234Z,16.49
2023-05-16T16:29:44.262Z,16.61
2023-05-16T16:32:11.194Z,16.70
2023-05-16T16:34:38.123Z,16.69
2023-05-16T16:37:05.487Z,16.68
2023-05-16T16:39:33.371Z,16.67
2023-05-16T16:42:00.445Z,16.66
2023-05-16T16:44:27.308Z,16.61
2023-05-16T16:46:54.251Z,16.54
2023-05-16T16:49:21.195Z,16.56
2023-05-16T16:51:48.076Z,16.58
2023-05-16T16:54:14.953Z,16.56
2023-05-16T16:56:41.935Z,16.57
2023-05-16T16:59:09.097Z,16.59
2023-05-16T17:01:36.402Z,16.49
2023-05-16T17:04:03.618Z,16.44
2023-05-16T17:06:30.778Z,16.22
2023-05-16T17:09:02.302Z,16.20
2023-05-16T17:11:30.058Z,16.19
2023-05-16T17:13:59.521Z,16.19
2023-05-16T17:16:28.628Z,16.19
2023-05-16T17:18:56.279Z,16.23
2023-05-16T17:21:23.244Z,16.24
2023-05-16T17:23:53.378Z,16.23
2023-05-16T17:26:20.636Z,16.27
2023-05-16T17:28:49.201Z,16.27
2023-05-16T17:31:16.687Z,16.25
2023-05-16T17:33:44.398Z,16.21
2023-05-16T17:36:11.333Z,16.16
2023-05-16T17:38:38.318Z,16.12
2023-05-16T17:41:05.394Z,16.13
2023-05-16T17:43:32.284Z,16.09
2023-05-16T17:45:59.541Z,16.13
2023-05-16T17:48:27.802Z,16.11
2023-05-16T17:50:54.678Z,16.11
2023-05-16T17:53:21.639Z,16.06
2023-05-16T17:55:49.600Z,16.02
2023-05-16T17:58:17.995Z,15.97
2023-05-16T18:00:46.693Z,15.93
2023-05-16T18:03:13.666Z,15.92
2023-05-16T18:05:40.782Z,15.85
2023-05-16T18:08:08.652Z,15.82
2023-05-16T18:10:50.484Z,15.87
2023-05-16T18:13:18.868Z,15.90
2023-05-16T18:15:45.778Z,15.91
2023-05-16T18:18:12.776Z,15.87
2023-05-16T18:20:40.777Z,15.73
2023-05-16T18:23:08.458Z,15.72
2023-05-16T18:25:35.517Z,15.65
2023-05-16T18:28:02.597Z,15.63
2023-05-16T18:30:29.481Z,15.58
2023-05-16T18:32:56.530Z,15.48
2023-05-16T18:35:23.723Z,15.40
2023-05-16T18:37:51.124Z,15.36
2023-05-16T18:40:18.391Z,15.36
2023-05-16T18:42:45.329Z,15.35
2023-05-16T18:45:12.227Z,15.37
2023-05-16T18:47:39.227Z,15.38
2023-05-16T18:50:07.317Z,15.32
2023-05-16T18:52:35.323Z,15.29
2023-05-16T18:55:02.481Z,15.26
2023-05-16T18:57:30.510Z,15.27
2023-05-16T18:59:58.147Z,15.19
2023-05-16T19:02:37.949Z,15.15
2023-05-16T19:05:09.342Z,15.17
2023-05-16T19:07:36.500Z,15.17
2023-05-16T19:10:04.253Z,15.18
2023-05-16T19:12:35.073Z,15.14
2023-05-16T19:15:01.960Z,15.16
2023-05-16T19:17:29.002Z,15.17
2023-05-16T19:19:56.022Z,15.08
2023-05-16T19:22:22.952Z,15.07
2023-05-16T19:24:50.672Z,15.03
2023-05-16T19:27:17.555Z,15.02
2023-05-16T19:29:44.471Z,14.95
2023-05-16T19:32:11.754Z,14.92
2023-05-16T19:34:38.900Z,14.88
2023-05-16T19:37:07.755Z,14.83
2023-05-16T19:39:34.649Z,14.84
2023-05-16T19:42:07.030Z,14.82
2023-05-16T19:44:35.107Z,14.72
2023-05-16T19:47:02.146Z,14.71
2023-05-16T19:49:31.601Z,14.65
2023-05-16T19:51:58.503Z,14.57
2023-05-16T19:54:26.069Z,14.54
2023-05-16T19:56:53.068Z,14.47
2023-05-16T19:59:20.755Z,14.37
2023-05-16T20:01:47.665Z,14.29
2023-05-16T20:04:14.797Z,14.18
2023-05-16T20:06:41.855Z,14.16
2023-05-16T20:09:10.119Z,14.16
2023-05-16T20:11:37.262Z,14.13
2023-05-16T20:14:04.123Z,14.12
2023-05-16T20:16:31.303Z,14.09
2023-05-16T20:18:58.386Z,14.01
2023-05-16T20:21:25.404Z,13.94
2023-05-16T20:23:52.322Z,13.86
2023-05-16T20:26:19.330Z,13.80
2023-05-16T20:28:46.198Z,13.73
2023-05-16T20:31:13.102Z,13.60
2023-05-16T20:33:40.089Z,13.51
2023-05-16T20:36:07.254Z,13.47
2023-05-16T20:38:34.199Z,13.45
2023-05-16T20:41:03.180Z,13.44
2023-05-16T20:43:30.124Z,13.41
2023-05-16T20:45:57.037Z,13.39
2023-05-16T20:48:24.024Z,13.28
2023-05-16T20:50:51.617Z,13.19
2023-05-16T20:53:18.520Z,13.09
2023-05-16T20:55:45.416Z,13.05
2023-05-16T20:58:12.322Z,13.06
2023-05-16T21:00:39.197Z,12.97
2023-05-16T21:03:06.196Z,12.91
2023-05-16T21:05:35.663Z,12.83
2023-05-16T21:08:02.651Z,12.77
2023-05-16T21:10:29.737Z,12.67
2023-05-16T21:12:56.659Z,12.65
2023-05-16T21:15:23.792Z,12.61
2023-05-16T21:17:51.199Z,12.50
2023-05-16T21:20:18.205Z,12.54
2023-05-16T21:22:45.055Z,12.48
2023-05-16T21:25:14.859Z,12.42
2023-05-16T21:27:41.701Z,12.38
2023-05-16T21:30:09.341Z,12.40
2023-05-16T21:32:36.233Z,12.41
2023-05-16T21:35:04.738Z,12.40
2023-05-16T21:37:31.657Z,12.41
2023-05-16T21:39:58.691Z,12.36
2023-05-16T21:42:25.790Z,12.35
2023-05-16T21:44:52.659Z,12.37
2023-05-16T21:47:19.584Z,12.32
2023-05-16T21:49:46.474Z,12.28
2023-05-16T21:52:13.541Z,12.24
2023-05-16T21:54:40.525Z,12.24
2023-05-16T21:57:07.426Z,12.21
2023-05-16T21:59:34.496Z,12.19
2023-05-16T22:02:01.407Z,12.20
2023-05-16T22:04:28.311Z,12.20
2023-05-16T22:06:55.206Z,12.13
2023-05-16T22:09:22.197Z,12.08
2023-05-16T22:11:49.073Z,12.12
2023-05-16T22:14:16.027Z,12.14
2023-05-16T22:16:43.156Z,12.10
2023-05-16T22:19:10.070Z,12.07
2023-05-16T22:21:37.043Z,12.04
2023-05-16T22:24:04.123Z,11.97
2023-05-16T22:26:31.087Z,11.96
2023-05-16T22:28:58.116Z,11.96
2023-05-16T22:31:25.082Z,12.00
2023-05-16T22:33:52.095Z,12.00
2023-05-16T22:36:19.097Z,11.99
2023-05-16T22:38:46.041Z,11.96
2023-05-16T22:41:12.960Z,11.93
2023-05-16T22:43:39.947Z,11.88
2023-05-16T22:46:06.915Z,11.89
2023-05-16T22:48:34.143Z,11.85
2023-05-16T22:51:02.465Z,11.83
2023-05-16T22:53:29.909Z,11.79
2023-05-16T22:55:57.041Z,11.77
2023-05-16T22:58:23.975Z,11.71
2023-05-16T23:00:50.907Z,11.64
2023-05-16T23:03:17.905Z,11.56
2023-05-16T23:05:44.795Z,11.48
2023-05-16T23:08:11.707Z,11.47
2023-05-16T23:10:38.663Z,11.47
2023-05-16T23:13:05.642Z,11.38
2023-05-16T23:15:32.611Z,11.36
2023-05-16T23:17:59.555Z,11.36
2023-05-16T23:20:26.582Z,11.28
2023-05-16T23:22:53.586Z,11.23
2023-05-16T23:25:20.884Z,11.18
2023-05-16T23:27:47.797Z,11.17
2023-05-16T23:30:15.370Z,11.15
2023-05-16T23:32:42.288Z,11.15
2023-05-16T23:35:09.497Z,11.14
2023-05-16T23:37:36.792Z,11.13
2023-05-16T23:40:04.064Z,11.12
2023-05-16T23:42:31.202Z,11.05
2023-05-16T23:44:58.093Z,11.01
2023-05-16T23:47:25.015Z,10.92
2023-05-16T23:49:51.977Z,10.96
2023-05-16T23:52:19.014Z,10.92
2023-05-16T23:54:45.955Z,10.96
2023-05-16T23:57:14.240Z,10.96
2023-05-16T23:59:41.316Z,10.97
